sensor_id;sensor_type;location;lat;lon;timestamp;P1;durP1;ratioP1;P2;durP2;ratioP2
56161;SDS011;42045;52.986;6.014;2023-02-11T00:02:02;50.35;;;25.38;;
56161;SDS011;42045;52.986;6.014;2023-02-11T00:04:29;32.83;;;14.15;;
56161;SDS011;42045;52.986;6.014;2023-02-11T00:06:55;42.92;;;14.05;;
56161;SDS011;42045;52.986;6.014;2023-02-11T00:09:21;42.80;;;16.38;;
56161;SDS011;42045;52.986;6.014;2023-02-11T00:11:47;29.10;;;10.57;;
56161;SDS011;42045;52.986;6.014;2023-02-11T00:14:12;33.60;;;10.98;;
56161;SDS011;42045;52.986;6.014;2023-02-11T00:16:38;32.90;;;10.23;;
56161;SDS011;42045;52.986;6.014;2023-02-11T00:19:04;29.92;;;9.98;;
56161;SDS011;42045;52.986;6.014;2023-02-11T00:21:31;26.10;;;8.45;;
56161;SDS011;42045;52.986;6.014;2023-02-11T00:23:57;29.80;;;9.48;;
56161;SDS011;42045;52.986;6.014;2023-02-11T00:26:27;32.08;;;8.15;;
56161;SDS011;42045;52.986;6.014;2023-02-11T00:28:55;27.58;;;8.00;;
56161;SDS011;42045;52.986;6.014;2023-02-11T00:31:21;27.83;;;9.27;;
56161;SDS011;42045;52.986;6.014;2023-02-11T00:33:48;25.38;;;7.88;;
56161;SDS011;42045;52.986;6.014;2023-02-11T00:36:15;34.55;;;9.50;;
56161;SDS011;42045;52.986;6.014;2023-02-11T00:38:43;22.48;;;7.53;;
56161;SDS011;42045;52.986;6.014;2023-02-11T00:41:10;38.00;;;12.93;;
56161;SDS011;42045;52.986;6.014;2023-02-11T00:43:38;51.05;;;14.18;;
56161;SDS011;42045;52.986;6.014;2023-02-11T00:46:05;50.55;;;21.17;;
56161;SDS011;42045;52.986;6.014;2023-02-11T00:48:31;38.40;;;14.40;;
56161;SDS011;42045;52.986;6.014;2023-02-11T00:50:57;40.47;;;14.18;;
56161;SDS011;42045;52.986;6.014;2023-02-11T00:53:23;30.17;;;12.48;;
56161;SDS011;42045;52.986;6.014;2023-02-11T00:55:49;32.95;;;13.10;;
56161;SDS011;42045;52.986;6.014;2023-02-11T00:58:15;32.20;;;12.63;;
56161;SDS011;42045;52.986;6.014;2023-02-11T01:00:40;46.50;;;17.23;;
56161;SDS011;42045;52.986;6.014;2023-02-11T01:03:07;35.17;;;12.75;;
56161;SDS011;42045;52.986;6.014;2023-02-11T01:05:33;32.80;;;9.93;;
56161;SDS011;42045;52.986;6.014;2023-02-11T01:07:59;36.58;;;11.70;;
56161;SDS011;42045;52.986;6.014;2023-02-11T01:10:25;26.77;;;9.60;;
56161;SDS011;42045;52.986;6.014;2023-02-11T01:12:52;36.40;;;10.52;;
56161;SDS011;42045;52.986;6.014;2023-02-11T01:15:19;32.60;;;10.55;;
56161;SDS011;42045;52.986;6.014;2023-02-11T01:17:45;36.05;;;10.55;;
56161;SDS011;42045;52.986;6.014;2023-02-11T01:20:16;30.42;;;10.07;;
56161;SDS011;42045;52.986;6.014;2023-02-11T01:22:47;27.38;;;8.90;;
56161;SDS011;42045;52.986;6.014;2023-02-11T01:25:12;30.15;;;10.77;;
56161;SDS011;42045;52.986;6.014;2023-02-11T01:27:38;27.45;;;9.80;;
56161;SDS011;42045;52.986;6.014;2023-02-11T01:30:05;39.50;;;14.52;;
56161;SDS011;42045;52.986;6.014;2023-02-11T01:32:32;39.70;;;16.30;;
56161;SDS011;42045;52.986;6.014;2023-02-11T01:34:58;33.88;;;11.25;;
56161;SDS011;42045;52.986;6.014;2023-02-11T01:37:24;37.75;;;12.68;;
56161;SDS011;42045;52.986;6.014;2023-02-11T01:39:49;36.30;;;12.63;;
56161;SDS011;42045;52.986;6.014;2023-02-11T01:42:16;55.95;;;18.73;;
56161;SDS011;42045;52.986;6.014;2023-02-11T01:44:44;35.33;;;14.45;;
56161;SDS011;42045;52.986;6.014;2023-02-11T01:47:13;43.70;;;14.32;;
56161;SDS011;42045;52.986;6.014;2023-02-11T01:49:40;40.47;;;14.95;;
56161;SDS011;42045;52.986;6.014;2023-02-11T01:52:32;44.53;;;14.70;;
56161;SDS011;42045;52.986;6.014;2023-02-11T01:55:03;44.35;;;19.52;;
56161;SDS011;42045;52.986;6.014;2023-02-11T01:57:51;40.97;;;17.45;;
56161;SDS011;42045;52.986;6.014;2023-02-11T02:00:33;39.20;;;14.43;;
56161;SDS011;42045;52.986;6.014;2023-02-11T02:08:24;35.10;;;14.18;;
56161;SDS011;42045;52.986;6.014;2023-02-11T02:10:59;35.38;;;14.70;;
56161;SDS011;42045;52.986;6.014;2023-02-11T02:13:27;41.10;;;15.93;;
56161;SDS011;42045;52.986;6.014;2023-02-11T02:15:56;35.90;;;15.27;;
56161;SDS011;42045;52.986;6.014;2023-02-11T02:35:03;41.58;;;18.27;;
56161;SDS011;42045;52.986;6.014;2023-02-11T02:37:47;41.33;;;17.92;;
56161;SDS011;42045;52.986;6.014;2023-02-11T02:40:26;42.17;;;19.00;;
56161;SDS011;42045;52.986;6.014;2023-02-11T02:42:56;47.03;;;21.63;;
56161;SDS011;42045;52.986;6.014;2023-02-11T02:45:23;52.40;;;22.80;;
56161;SDS011;42045;52.986;6.014;2023-02-11T02:47:49;43.33;;;20.80;;
56161;SDS011;42045;52.986;6.014;2023-02-11T02:50:15;39.08;;;20.35;;
56161;SDS011;42045;52.986;6.014;2023-02-11T02:55:29;53.55;;;23.30;;
56161;SDS011;42045;52.986;6.014;2023-02-11T03:01:02;48.47;;;22.08;;
56161;SDS011;42045;52.986;6.014;2023-02-11T03:03:48;50.97;;;22.35;;
56161;SDS011;42045;52.986;6.014;2023-02-11T03:06:31;52.22;;;22.48;;
56161;SDS011;42045;52.986;6.014;2023-02-11T03:08:59;44.63;;;21.85;;
56161;SDS011;42045;52.986;6.014;2023-02-11T03:11:46;43.45;;;21.85;;
56161;SDS011;42045;52.986;6.014;2023-02-11T03:14:14;40.55;;;20.88;;
56161;SDS011;42045;52.986;6.014;2023-02-11T03:16:42;45.03;;;21.52;;
56161;SDS011;42045;52.986;6.014;2023-02-11T03:19:23;49.50;;;22.90;;
56161;SDS011;42045;52.986;6.014;2023-02-11T03:21:52;43.60;;;21.53;;
56161;SDS011;42045;52.986;6.014;2023-02-11T03:24:41;48.15;;;22.23;;
56161;SDS011;42045;52.986;6.014;2023-02-11T03:30:00;50.97;;;21.98;;
56161;SDS011;42045;52.986;6.014;2023-02-11T03:32:35;43.63;;;21.58;;
56161;SDS011;42045;52.986;6.014;2023-02-11T03:37:47;52.43;;;21.77;;
56161;SDS011;42045;52.986;6.014;2023-02-11T03:40:18;42.17;;;22.45;;
56161;SDS011;42045;52.986;6.014;2023-02-11T03:42:55;50.75;;;23.58;;
56161;SDS011;42045;52.986;6.014;2023-02-11T03:45:25;45.60;;;22.65;;
56161;SDS011;42045;52.986;6.014;2023-02-11T03:47:54;47.67;;;24.20;;
56161;SDS011;42045;52.986;6.014;2023-02-11T03:50:38;48.63;;;22.00;;
56161;SDS011;42045;52.986;6.014;2023-02-11T03:53:05;52.42;;;23.23;;
56161;SDS011;42045;52.986;6.014;2023-02-11T03:55:34;52.40;;;23.35;;
56161;SDS011;42045;52.986;6.014;2023-02-11T03:58:02;44.50;;;21.95;;
56161;SDS011;42045;52.986;6.014;2023-02-11T04:00:29;47.85;;;23.35;;
56161;SDS011;42045;52.986;6.014;2023-02-11T04:02:56;45.13;;;24.25;;
56161;SDS011;42045;52.986;6.014;2023-02-11T04:05:22;41.97;;;21.73;;
56161;SDS011;42045;52.986;6.014;2023-02-11T04:07:48;47.53;;;23.75;;
56161;SDS011;42045;52.986;6.014;2023-02-11T04:10:13;52.63;;;23.80;;
56161;SDS011;42045;52.986;6.014;2023-02-11T04:12:39;53.42;;;24.23;;
56161;SDS011;42045;52.986;6.014;2023-02-11T04:15:05;46.03;;;22.77;;
56161;SDS011;42045;52.986;6.014;2023-02-11T04:17:31;46.15;;;24.02;;
56161;SDS011;42045;52.986;6.014;2023-02-11T04:19:57;52.85;;;24.05;;
56161;SDS011;42045;52.986;6.014;2023-02-11T04:22:25;46.63;;;24.65;;
56161;SDS011;42045;52.986;6.014;2023-02-11T04:24:51;55.22;;;25.95;;
56161;SDS011;42045;52.986;6.014;2023-02-11T04:27:17;48.10;;;25.33;;
56161;SDS011;42045;52.986;6.014;2023-02-11T04:29:42;50.95;;;24.63;;
56161;SDS011;42045;52.986;6.014;2023-02-11T04:32:09;48.17;;;25.30;;
56161;SDS011;42045;52.986;6.014;2023-02-11T04:34:37;49.08;;;26.35;;
56161;SDS011;42045;52.986;6.014;2023-02-11T04:37:03;49.22;;;24.27;;
56161;SDS011;42045;52.986;6.014;2023-02-11T04:39:29;45.25;;;24.27;;
56161;SDS011;42045;52.986;6.014;2023-02-11T04:41:55;49.72;;;25.92;;
56161;SDS011;42045;52.986;6.014;2023-02-11T04:44:26;52.38;;;26.05;;
56161;SDS011;42045;52.986;6.014;2023-02-11T04:46:52;51.55;;;24.90;;
56161;SDS011;42045;52.986;6.014;2023-02-11T04:49:18;51.53;;;24.92;;
56161;SDS011;42045;52.986;6.014;2023-02-11T04:51:44;49.67;;;25.85;;
56161;SDS011;42045;52.986;6.014;2023-02-11T04:54:10;49.00;;;24.23;;
56161;SDS011;42045;52.986;6.014;2023-02-11T04:56:36;50.50;;;25.00;;
56161;SDS011;42045;52.986;6.014;2023-02-11T04:59:03;51.53;;;24.70;;
56161;SDS011;42045;52.986;6.014;2023-02-11T05:01:29;49.28;;;25.17;;
56161;SDS011;42045;52.986;6.014;2023-02-11T05:03:58;46.30;;;25.60;;
56161;SDS011;42045;52.986;6.014;2023-02-11T05:06:26;52.78;;;26.33;;
56161;SDS011;42045;52.986;6.014;2023-02-11T05:08:52;53.22;;;24.80;;
56161;SDS011;42045;52.986;6.014;2023-02-11T05:11:18;50.35;;;25.67;;
56161;SDS011;42045;52.986;6.014;2023-02-11T05:13:46;47.60;;;27.50;;
56161;SDS011;42045;52.986;6.014;2023-02-11T05:16:14;52.83;;;26.38;;
56161;SDS011;42045;52.986;6.014;2023-02-11T05:18:41;41.95;;;24.25;;
56161;SDS011;42045;52.986;6.014;2023-02-11T05:21:08;58.60;;;26.92;;
56161;SDS011;42045;52.986;6.014;2023-02-11T05:23:35;47.10;;;26.88;;
56161;SDS011;42045;52.986;6.014;2023-02-11T05:26:01;48.80;;;26.17;;
56161;SDS011;42045;52.986;6.014;2023-02-11T05:28:28;51.20;;;25.30;;
56161;SDS011;42045;52.986;6.014;2023-02-11T05:30:54;53.30;;;27.00;;
56161;SDS011;42045;52.986;6.014;2023-02-11T05:33:20;46.15;;;25.23;;
56161;SDS011;42045;52.986;6.014;2023-02-11T05:35:49;57.42;;;26.38;;
56161;SDS011;42045;52.986;6.014;2023-02-11T05:38:14;53.00;;;25.23;;
56161;SDS011;42045;52.986;6.014;2023-02-11T05:40:40;56.72;;;25.35;;
56161;SDS011;42045;52.986;6.014;2023-02-11T05:43:06;48.53;;;25.50;;
56161;SDS011;42045;52.986;6.014;2023-02-11T05:45:32;55.22;;;28.15;;
56161;SDS011;42045;52.986;6.014;2023-02-11T05:47:58;53.83;;;25.95;;
56161;SDS011;42045;52.986;6.014;2023-02-11T05:50:24;53.35;;;27.48;;
56161;SDS011;42045;52.986;6.014;2023-02-11T05:52:50;50.78;;;26.63;;
56161;SDS011;42045;52.986;6.014;2023-02-11T05:55:16;55.83;;;26.50;;
56161;SDS011;42045;52.986;6.014;2023-02-11T05:57:42;55.13;;;27.48;;
56161;SDS011;42045;52.986;6.014;2023-02-11T06:00:07;55.25;;;26.65;;
56161;SDS011;42045;52.986;6.014;2023-02-11T06:02:34;48.17;;;25.35;;
56161;SDS011;42045;52.986;6.014;2023-02-11T06:05:00;51.45;;;25.70;;
56161;SDS011;42045;52.986;6.014;2023-02-11T06:07:25;51.03;;;27.30;;
56161;SDS011;42045;52.986;6.014;2023-02-11T06:09:51;61.42;;;28.20;;
56161;SDS011;42045;52.986;6.014;2023-02-11T06:12:17;50.15;;;26.27;;
56161;SDS011;42045;52.986;6.014;2023-02-11T06:14:42;63.05;;;29.48;;
56161;SDS011;42045;52.986;6.014;2023-02-11T06:17:08;53.83;;;28.00;;
56161;SDS011;42045;52.986;6.014;2023-02-11T06:19:34;58.33;;;27.63;;
56161;SDS011;42045;52.986;6.014;2023-02-11T06:21:59;53.08;;;28.98;;
56161;SDS011;42045;52.986;6.014;2023-02-11T06:24:25;53.03;;;28.63;;
56161;SDS011;42045;52.986;6.014;2023-02-11T06:26:51;62.60;;;29.73;;
56161;SDS011;42045;52.986;6.014;2023-02-11T06:29:17;61.40;;;29.92;;
56161;SDS011;42045;52.986;6.014;2023-02-11T06:31:43;61.55;;;29.85;;
56161;SDS011;42045;52.986;6.014;2023-02-11T06:34:09;58.92;;;30.10;;
56161;SDS011;42045;52.986;6.014;2023-02-11T06:36:35;64.82;;;30.63;;
56161;SDS011;42045;52.986;6.014;2023-02-11T06:39:05;66.35;;;32.80;;
56161;SDS011;42045;52.986;6.014;2023-02-11T06:41:31;70.60;;;32.03;;
56161;SDS011;42045;52.986;6.014;2023-02-11T06:43:57;65.90;;;33.08;;
56161;SDS011;42045;52.986;6.014;2023-02-11T06:46:23;63.08;;;30.95;;
56161;SDS011;42045;52.986;6.014;2023-02-11T06:48:49;59.92;;;30.15;;
56161;SDS011;42045;52.986;6.014;2023-02-11T06:51:14;65.60;;;32.63;;
56161;SDS011;42045;52.986;6.014;2023-02-11T06:53:42;57.97;;;30.15;;
56161;SDS011;42045;52.986;6.014;2023-02-11T06:56:10;64.15;;;32.33;;
56161;SDS011;42045;52.986;6.014;2023-02-11T06:58:40;66.15;;;32.40;;
56161;SDS011;42045;52.986;6.014;2023-02-11T07:01:10;62.22;;;31.00;;
56161;SDS011;42045;52.986;6.014;2023-02-11T07:06:07;68.97;;;31.58;;
56161;SDS011;42045;52.986;6.014;2023-02-11T07:08:36;63.95;;;30.92;;
56161;SDS011;42045;52.986;6.014;2023-02-11T07:11:12;66.93;;;32.97;;
56161;SDS011;42045;52.986;6.014;2023-02-11T07:13:43;65.07;;;30.92;;
56161;SDS011;42045;52.986;6.014;2023-02-11T07:16:10;65.72;;;31.45;;
56161;SDS011;42045;52.986;6.014;2023-02-11T07:18:38;62.28;;;31.58;;
56161;SDS011;42045;52.986;6.014;2023-02-11T07:21:07;62.88;;;30.80;;
56161;SDS011;42045;52.986;6.014;2023-02-11T07:23:37;62.65;;;33.92;;
56161;SDS011;42045;52.986;6.014;2023-02-11T07:26:05;61.95;;;30.13;;
56161;SDS011;42045;52.986;6.014;2023-02-11T07:28:32;61.28;;;30.45;;
56161;SDS011;42045;52.986;6.014;2023-02-11T07:31:04;63.40;;;30.77;;
56161;SDS011;42045;52.986;6.014;2023-02-11T07:33:34;59.50;;;30.70;;
56161;SDS011;42045;52.986;6.014;2023-02-11T07:36:00;57.00;;;29.77;;
56161;SDS011;42045;52.986;6.014;2023-02-11T07:38:32;61.25;;;29.42;;
56161;SDS011;42045;52.986;6.014;2023-02-11T07:40:59;56.72;;;29.30;;
56161;SDS011;42045;52.986;6.014;2023-02-11T07:43:31;59.95;;;29.77;;
56161;SDS011;42045;52.986;6.014;2023-02-11T07:49:07;62.78;;;28.42;;
56161;SDS011;42045;52.986;6.014;2023-02-11T07:51:33;59.40;;;29.23;;
56161;SDS011;42045;52.986;6.014;2023-02-11T07:53:59;55.30;;;29.30;;
56161;SDS011;42045;52.986;6.014;2023-02-11T07:56:26;57.08;;;30.80;;
56161;SDS011;42045;52.986;6.014;2023-02-11T07:58:58;64.07;;;29.70;;
56161;SDS011;42045;52.986;6.014;2023-02-11T08:01:25;66.07;;;31.75;;
56161;SDS011;42045;52.986;6.014;2023-02-11T08:03:56;56.08;;;31.17;;
56161;SDS011;42045;52.986;6.014;2023-02-11T08:06:24;62.15;;;30.15;;
56161;SDS011;42045;52.986;6.014;2023-02-11T08:08:50;61.10;;;31.55;;
56161;SDS011;42045;52.986;6.014;2023-02-11T08:11:18;59.53;;;31.58;;
56161;SDS011;42045;52.986;6.014;2023-02-11T08:13:45;169.82;;;145.88;;
56161;SDS011;42045;52.986;6.014;2023-02-11T08:16:31;92.90;;;79.97;;
56161;SDS011;42045;52.986;6.014;2023-02-11T08:19:02;73.35;;;52.97;;
56161;SDS011;42045;52.986;6.014;2023-02-11T08:21:29;66.07;;;35.65;;
56161;SDS011;42045;52.986;6.014;2023-02-11T08:23:59;62.90;;;33.67;;
56161;SDS011;42045;52.986;6.014;2023-02-11T08:26:27;58.03;;;31.88;;
56161;SDS011;42045;52.986;6.014;2023-02-11T08:29:07;46.33;;;27.38;;
56161;SDS011;42045;52.986;6.014;2023-02-11T08:31:36;56.22;;;33.65;;
56161;SDS011;42045;52.986;6.014;2023-02-11T08:34:04;52.67;;;31.63;;
56161;SDS011;42045;52.986;6.014;2023-02-11T08:36:31;58.97;;;31.13;;
56161;SDS011;42045;52.986;6.014;2023-02-11T08:39:00;46.97;;;28.02;;
56161;SDS011;42045;52.986;6.014;2023-02-11T08:41:29;52.10;;;28.77;;
56161;SDS011;42045;52.986;6.014;2023-02-11T08:43:56;46.80;;;27.15;;
56161;SDS011;42045;52.986;6.014;2023-02-11T08:46:22;43.38;;;27.88;;
56161;SDS011;42045;52.986;6.014;2023-02-11T08:48:52;49.63;;;28.40;;
56161;SDS011;42045;52.986;6.014;2023-02-11T08:51:19;40.45;;;23.83;;
56161;SDS011;42045;52.986;6.014;2023-02-11T08:53:48;35.60;;;21.50;;
56161;SDS011;42045;52.986;6.014;2023-02-11T08:56:14;38.90;;;22.23;;
56161;SDS011;42045;52.986;6.014;2023-02-11T08:58:41;36.45;;;20.98;;
56161;SDS011;42045;52.986;6.014;2023-02-11T09:01:09;39.10;;;23.38;;
56161;SDS011;42045;52.986;6.014;2023-02-11T09:03:41;36.95;;;22.05;;
56161;SDS011;42045;52.986;6.014;2023-02-11T09:06:11;34.80;;;21.08;;
56161;SDS011;42045;52.986;6.014;2023-02-11T09:08:47;30.23;;;21.42;;
56161;SDS011;42045;52.986;6.014;2023-02-11T09:18:24;34.67;;;19.27;;
56161;SDS011;42045;52.986;6.014;2023-02-11T09:20:50;29.25;;;19.45;;
56161;SDS011;42045;52.986;6.014;2023-02-11T09:23:26;32.17;;;19.30;;
56161;SDS011;42045;52.986;6.014;2023-02-11T09:25:52;30.30;;;18.27;;
56161;SDS011;42045;52.986;6.014;2023-02-11T09:28:19;33.72;;;18.77;;
56161;SDS011;42045;52.986;6.014;2023-02-11T09:30:44;24.15;;;17.77;;
56161;SDS011;42045;52.986;6.014;2023-02-11T09:33:10;27.30;;;16.05;;
56161;SDS011;42045;52.986;6.014;2023-02-11T09:35:36;30.92;;;16.15;;
56161;SDS011;42045;52.986;6.014;2023-02-11T09:38:02;29.10;;;16.13;;
56161;SDS011;42045;52.986;6.014;2023-02-11T09:40:28;26.52;;;16.20;;
56161;SDS011;42045;52.986;6.014;2023-02-11T09:43:05;23.95;;;14.85;;
56161;SDS011;42045;52.986;6.014;2023-02-11T09:45:36;24.75;;;14.85;;
56161;SDS011;42045;52.986;6.014;2023-02-11T09:50:57;26.45;;;15.15;;
56161;SDS011;42045;52.986;6.014;2023-02-11T09:53:40;157.10;;;77.80;;
56161;SDS011;42045;52.986;6.014;2023-02-11T09:56:12;251.95;;;129.77;;
56161;SDS011;42045;52.986;6.014;2023-02-11T09:58:40;126.00;;;75.65;;
56161;SDS011;42045;52.986;6.014;2023-02-11T10:01:11;178.85;;;119.25;;
56161;SDS011;42045;52.986;6.014;2023-02-11T10:06:40;24.67;;;21.35;;
56161;SDS011;42045;52.986;6.014;2023-02-11T10:09:31;34.38;;;13.48;;
56161;SDS011;42045;52.986;6.014;2023-02-11T10:23:41;20.60;;;10.57;;
56161;SDS011;42045;52.986;6.014;2023-02-11T10:26:14;21.02;;;11.38;;
56161;SDS011;42045;52.986;6.014;2023-02-11T10:28:43;23.05;;;11.70;;
56161;SDS011;42045;52.986;6.014;2023-02-11T10:31:21;19.45;;;10.63;;
56161;SDS011;42045;52.986;6.014;2023-02-11T10:36:28;22.20;;;11.73;;
56161;SDS011;42045;52.986;6.014;2023-02-11T10:38:59;22.50;;;11.20;;
56161;SDS011;42045;52.986;6.014;2023-02-11T10:41:35;23.48;;;11.32;;
56161;SDS011;42045;52.986;6.014;2023-02-11T10:44:06;22.17;;;10.00;;
56161;SDS011;42045;52.986;6.014;2023-02-11T10:46:33;20.88;;;9.52;;
56161;SDS011;42045;52.986;6.014;2023-02-11T10:49:02;19.90;;;10.00;;
56161;SDS011;42045;52.986;6.014;2023-02-11T10:51:28;19.20;;;9.77;;
56161;SDS011;42045;52.986;6.014;2023-02-11T10:56:39;21.17;;;9.35;;
56161;SDS011;42045;52.986;6.014;2023-02-11T11:02:27;18.55;;;9.02;;
56161;SDS011;42045;52.986;6.014;2023-02-11T11:04:47;16.77;;;8.40;;
56161;SDS011;42045;52.986;6.014;2023-02-11T11:09:46;17.27;;;7.50;;
56161;SDS011;42045;52.986;6.014;2023-02-11T11:14:55;18.02;;;8.82;;
56161;SDS011;42045;52.986;6.014;2023-02-11T11:17:43;21.38;;;8.15;;
56161;SDS011;42045;52.986;6.014;2023-02-11T11:20:28;17.85;;;7.97;;
56161;SDS011;42045;52.986;6.014;2023-02-11T11:26:20;18.60;;;7.60;;
56161;SDS011;42045;52.986;6.014;2023-02-11T11:29:00;16.25;;;8.20;;
56161;SDS011;42045;52.986;6.014;2023-02-11T11:31:35;17.92;;;8.32;;
56161;SDS011;42045;52.986;6.014;2023-02-11T11:34:37;14.60;;;7.78;;
56161;SDS011;42045;52.986;6.014;2023-02-11T11:37:10;18.83;;;9.18;;
56161;SDS011;42045;52.986;6.014;2023-02-11T11:40:00;29.90;;;22.17;;
56161;SDS011;42045;52.986;6.014;2023-02-11T11:42:36;21.77;;;10.30;;
56161;SDS011;42045;52.986;6.014;2023-02-11T11:47:50;14.43;;;6.90;;
56161;SDS011;42045;52.986;6.014;2023-02-11T11:50:28;13.10;;;8.00;;
56161;SDS011;42045;52.986;6.014;2023-02-11T11:58:29;25.00;;;12.57;;
56161;SDS011;42045;52.986;6.014;2023-02-11T12:17:45;13.13;;;4.82;;
56161;SDS011;42045;52.986;6.014;2023-02-11T12:26:21;16.88;;;5.35;;
56161;SDS011;42045;52.986;6.014;2023-02-11T12:37:46;14.90;;;4.70;;
56161;SDS011;42045;52.986;6.014;2023-02-11T12:43:04;18.92;;;5.53;;
56161;SDS011;42045;52.986;6.014;2023-02-11T12:46:01;12.95;;;4.70;;
56161;SDS011;42045;52.986;6.014;2023-02-11T12:56:36;20.20;;;5.88;;
56161;SDS011;42045;52.986;6.014;2023-02-11T12:59:09;19.45;;;6.82;;
56161;SDS011;42045;52.986;6.014;2023-02-11T13:01:57;16.25;;;5.43;;
56161;SDS011;42045;52.986;6.014;2023-02-11T13:04:29;19.80;;;5.65;;
56161;SDS011;42045;52.986;6.014;2023-02-11T13:07:05;15.50;;;5.53;;
56161;SDS011;42045;52.986;6.014;2023-02-11T13:09:41;22.25;;;6.82;;
56161;SDS011;42045;52.986;6.014;2023-02-11T13:12:13;18.33;;;5.45;;
56161;SDS011;42045;52.986;6.014;2023-02-11T13:14:59;16.35;;;6.88;;
56161;SDS011;42045;52.986;6.014;2023-02-11T13:17:34;16.23;;;4.90;;
56161;SDS011;42045;52.986;6.014;2023-02-11T13:20:11;17.15;;;4.50;;
56161;SDS011;42045;52.986;6.014;2023-02-11T13:22:51;18.05;;;5.22;;
56161;SDS011;42045;52.986;6.014;2023-02-11T13:30:53;20.77;;;6.38;;
56161;SDS011;42045;52.986;6.014;2023-02-11T13:33:33;15.43;;;4.95;;
56161;SDS011;42045;52.986;6.014;2023-02-11T13:36:17;18.45;;;5.70;;
56161;SDS011;42045;52.986;6.014;2023-02-11T13:38:55;16.05;;;4.50;;
56161;SDS011;42045;52.986;6.014;2023-02-11T13:41:25;18.17;;;4.35;;
56161;SDS011;42045;52.986;6.014;2023-02-11T13:46:53;19.02;;;5.80;;
56161;SDS011;42045;52.986;6.014;2023-02-11T13:49:20;17.88;;;5.18;;
56161;SDS011;42045;52.986;6.014;2023-02-11T13:51:53;18.75;;;5.35;;
56161;SDS011;42045;52.986;6.014;2023-02-11T13:54:30;13.15;;;4.97;;
56161;SDS011;42045;52.986;6.014;2023-02-11T13:57:47;14.30;;;4.22;;
56161;SDS011;42045;52.986;6.014;2023-02-11T13:59:49;18.52;;;4.22;;
56161;SDS011;42045;52.986;6.014;2023-02-11T14:02:38;13.70;;;5.05;;
56161;SDS011;42045;52.986;6.014;2023-02-11T14:05:26;52.35;;;23.58;;
56161;SDS011;42045;52.986;6.014;2023-02-11T14:08:18;23.30;;;8.40;;
56161;SDS011;42045;52.986;6.014;2023-02-11T14:11:08;21.83;;;9.45;;
56161;SDS011;42045;52.986;6.014;2023-02-11T14:16:21;34.30;;;16.58;;
56161;SDS011;42045;52.986;6.014;2023-02-11T14:23:50;40.65;;;25.70;;
56161;SDS011;42045;52.986;6.014;2023-02-11T14:31:44;23.05;;;14.10;;
56161;SDS011;42045;52.986;6.014;2023-02-11T14:42:29;13.25;;;5.20;;
56161;SDS011;42045;52.986;6.014;2023-02-11T14:44:56;13.50;;;4.30;;
56161;SDS011;42045;52.986;6.014;2023-02-11T14:47:33;16.02;;;5.30;;
56161;SDS011;42045;52.986;6.014;2023-02-11T14:50:11;17.27;;;4.25;;
56161;SDS011;42045;52.986;6.014;2023-02-11T14:52:41;17.45;;;7.80;;
56161;SDS011;42045;52.986;6.014;2023-02-11T14:55:29;23.60;;;11.15;;
56161;SDS011;42045;52.986;6.014;2023-02-11T14:58:38;16.00;;;8.43;;
56161;SDS011;42045;52.986;6.014;2023-02-11T15:03:29;13.60;;;4.10;;
56161;SDS011;42045;52.986;6.014;2023-02-11T15:05:58;14.27;;;3.65;;
56161;SDS011;42045;52.986;6.014;2023-02-11T15:08:29;14.20;;;4.35;;
56161;SDS011;42045;52.986;6.014;2023-02-11T15:11:02;12.45;;;3.72;;
56161;SDS011;42045;52.986;6.014;2023-02-11T15:13:34;12.38;;;3.38;;
56161;SDS011;42045;52.986;6.014;2023-02-11T15:16:03;16.00;;;4.22;;
56161;SDS011;42045;52.986;6.014;2023-02-11T15:18:36;14.90;;;4.03;;
56161;SDS011;42045;52.986;6.014;2023-02-11T15:21:06;11.07;;;3.58;;
56161;SDS011;42045;52.986;6.014;2023-02-11T15:23:32;13.00;;;4.20;;
56161;SDS011;42045;52.986;6.014;2023-02-11T15:25:58;15.25;;;3.78;;
56161;SDS011;42045;52.986;6.014;2023-02-11T15:28:29;11.27;;;3.53;;
56161;SDS011;42045;52.986;6.014;2023-02-11T15:31:20;17.15;;;4.38;;
56161;SDS011;42045;52.986;6.014;2023-02-11T15:33:47;14.88;;;4.50;;
56161;SDS011;42045;52.986;6.014;2023-02-11T15:36:13;14.45;;;3.60;;
56161;SDS011;42045;52.986;6.014;2023-02-11T15:38:40;11.77;;;3.25;;
56161;SDS011;42045;52.986;6.014;2023-02-11T15:41:54;11.07;;;3.70;;
56161;SDS011;42045;52.986;6.014;2023-02-11T15:43:58;17.02;;;3.60;;
56161;SDS011;42045;52.986;6.014;2023-02-11T15:46:24;12.43;;;4.50;;
56161;SDS011;42045;52.986;6.014;2023-02-11T15:49:00;15.55;;;3.47;;
56161;SDS011;42045;52.986;6.014;2023-02-11T15:51:30;17.58;;;3.40;;
56161;SDS011;42045;52.986;6.014;2023-02-11T15:54:02;13.77;;;3.42;;
56161;SDS011;42045;52.986;6.014;2023-02-11T15:56:40;13.32;;;3.30;;
56161;SDS011;42045;52.986;6.014;2023-02-11T15:59:24;18.73;;;4.45;;
56161;SDS011;42045;52.986;6.014;2023-02-11T16:02:19;19.67;;;8.10;;
56161;SDS011;42045;52.986;6.014;2023-02-11T16:05:01;86.72;;;46.22;;
56161;SDS011;42045;52.986;6.014;2023-02-11T16:07:48;45.45;;;24.85;;
56161;SDS011;42045;52.986;6.014;2023-02-11T16:10:16;58.50;;;34.30;;
56161;SDS011;42045;52.986;6.014;2023-02-11T16:12:49;38.00;;;20.73;;
56161;SDS011;42045;52.986;6.014;2023-02-11T16:15:55;37.78;;;19.67;;
56161;SDS011;42045;52.986;6.014;2023-02-11T16:18:29;19.85;;;8.40;;
56161;SDS011;42045;52.986;6.014;2023-02-11T16:21:00;23.25;;;9.40;;
56161;SDS011;42045;52.986;6.014;2023-02-11T16:23:30;31.13;;;17.30;;
56161;SDS011;42045;52.986;6.014;2023-02-11T16:28:32;20.92;;;10.38;;
56161;SDS011;42045;52.986;6.014;2023-02-11T16:30:59;21.45;;;9.75;;
56161;SDS011;42045;52.986;6.014;2023-02-11T16:33:25;19.17;;;8.15;;
56161;SDS011;42045;52.986;6.014;2023-02-11T16:35:52;19.42;;;5.28;;
56161;SDS011;42045;52.986;6.014;2023-02-11T16:38:18;22.27;;;7.28;;
56161;SDS011;42045;52.986;6.014;2023-02-11T16:40:44;15.20;;;5.32;;
56161;SDS011;42045;52.986;6.014;2023-02-11T16:43:13;15.43;;;5.80;;
56161;SDS011;42045;52.986;6.014;2023-02-11T16:45:42;23.70;;;8.48;;
56161;SDS011;42045;52.986;6.014;2023-02-11T16:48:08;17.27;;;7.95;;
56161;SDS011;42045;52.986;6.014;2023-02-11T16:50:37;52.85;;;28.75;;
56161;SDS011;42045;52.986;6.014;2023-02-11T16:53:10;23.63;;;9.55;;
56161;SDS011;42045;52.986;6.014;2023-02-11T16:55:46;23.35;;;7.25;;
56161;SDS011;42045;52.986;6.014;2023-02-11T16:58:13;18.42;;;5.75;;
56161;SDS011;42045;52.986;6.014;2023-02-11T17:00:38;21.67;;;6.03;;
56161;SDS011;42045;52.986;6.014;2023-02-11T17:03:05;18.02;;;4.45;;
56161;SDS011;42045;52.986;6.014;2023-02-11T17:05:32;16.02;;;4.75;;
56161;SDS011;42045;52.986;6.014;2023-02-11T17:07:58;15.30;;;3.90;;
56161;SDS011;42045;52.986;6.014;2023-02-11T17:10:25;14.43;;;4.22;;
56161;SDS011;42045;52.986;6.014;2023-02-11T17:12:54;12.45;;;3.80;;
56161;SDS011;42045;52.986;6.014;2023-02-11T17:15:20;13.93;;;3.85;;
56161;SDS011;42045;52.986;6.014;2023-02-11T17:17:46;16.25;;;4.43;;
56161;SDS011;42045;52.986;6.014;2023-02-11T17:20:12;14.93;;;3.42;;
56161;SDS011;42045;52.986;6.014;2023-02-11T17:22:38;16.73;;;4.60;;
56161;SDS011;42045;52.986;6.014;2023-02-11T17:25:04;14.68;;;4.30;;
56161;SDS011;42045;52.986;6.014;2023-02-11T17:27:30;16.00;;;3.97;;
56161;SDS011;42045;52.986;6.014;2023-02-11T17:29:56;18.67;;;3.65;;
56161;SDS011;42045;52.986;6.014;2023-02-11T17:32:22;14.25;;;4.00;;